Terminal Aerodrome Forecast
Issued by NWS Sterling, VA

Current Version | Previous Version | Text Only | Print | Product List | Glossary Off
Versions: 1 2 3 4 5 6 7 8 9 10 11 12 13 14 15 16 17 18 19 20 21 22 23 24

298
FTUS41 KLWX 202326
TAFDCA
TAF
KDCA 202326Z 2100/2124 17005KT 2SM -TSRA BKN050CB
      TEMPO 2100/2101 24015G30KT 1SM -TSRA BKN025CB
     FM210200 16004KT P6SM VCTS BKN050CB
     FM210300 16004KT P6SM BKN070
     FM210600 18004KT P6SM SCT070
     FM210900 21004KT P6SM BKN060
     FM211400 24008KT P6SM BKN060
     FM211800 26009KT P6SM -SHRA BKN050=

USA.gov is the U.S. government's official web portal to all federal, state and local government web resources and services.